»·PEaware :: N3452E KMRY-KSNA

N3452E :: KMRY-KSNA

FLIGHT INFORMATION

Flight Status: Arrived
Operator: Privately registered:
United States
More flights under this callsign
Pilot: John C. (27555)
Aircraft: PILATUS PC-12 EAGLE
(PC12)
More flights by this aircraft type
Origin: KMRY Monterey Peninsula
United States
Destination: KSNA John Wayne-Orange Co
United States
More flights between these airports :: More routes between these airports
Route: MRY5 SHOEY SNS J6 LANDO LHS V459 SLI
File this flight plan on PilotEdge
Remarks:
Altitude:
(Current/Filed)
21,000ft
Speed:
(Current/Filed)
250kts
Departed: 11-Jan-21 08:00 PM
Arrived: 11-Jan-21 09:16 PM
Distance/Time
Traveled:
262nm/1:16
Distance/Time
To Go:
Arrived

Flight Plot

Page will automatically refresh every two minutes.

Flight plan parsing failed; only flown route is shown


Map Options




Map Legend


Flown Route
Filed Route
Departure Airport
Arrival Airport
Navaid (VOR, NDB)
Fix

Horizontal Profiles

Position Reports

Time Latitude Longitude Heading Altitude Ground
Speed
11-Jan-21 19:45 36.589319 -121.857990 305 259ft 0kts
11-Jan-21 19:46 36.589319 -121.857990 305 259ft 0kts
11-Jan-21 19:47 36.589319 -121.857990 305 259ft 0kts
11-Jan-21 19:48 36.589319 -121.857990 305 259ft 0kts
11-Jan-21 19:49 36.589319 -121.857990 305 259ft 0kts
11-Jan-21 19:50 36.589319 -121.857990 305 259ft 0kts
11-Jan-21 19:51 36.589319 -121.857990 305 259ft 0kts
11-Jan-21 19:52 36.589319 -121.857990 305 259ft 0kts
11-Jan-21 19:53 36.589319 -121.857990 305 259ft 0kts
11-Jan-21 19:54 36.589319 -121.857990 305 259ft 0kts
11-Jan-21 19:55 36.589319 -121.857990 305 259ft 0kts
11-Jan-21 19:55 36.589319 -121.857990 305 259ft 0kts
11-Jan-21 19:57 36.589533 -121.857730 106 259ft 5kts
11-Jan-21 19:57 36.589910 -121.856195 23 259ft 0kts
11-Jan-21 19:58 36.589915 -121.856193 23 259ft 0kts
11-Jan-21 20:00 36.588103 -121.847751 112 259ft 109kts
11-Jan-21 20:01 36.588951 -121.808231 16 1640ft 163kts
11-Jan-21 20:01 36.628669 -121.819168 342 3160ft 181kts
11-Jan-21 20:02 36.674852 -121.836846 342 5148ft 168kts
11-Jan-21 20:03 36.689839 -121.884751 273 6946ft 175kts
11-Jan-21 20:04 36.723692 -121.914083 39 8139ft 192kts
11-Jan-21 20:05 36.719899 -121.855867 110 10026ft 179kts
11-Jan-21 20:06 36.704998 -121.794796 105 11592ft 189kts
11-Jan-21 20:07 36.691276 -121.730631 105 13251ft 196kts
11-Jan-21 20:08 36.676935 -121.663526 105 14775ft 205kts
11-Jan-21 20:09 36.654965 -121.598822 141 16239ft 207kts
11-Jan-21 20:10 36.608800 -121.554705 148 17604ft 213kts
11-Jan-21 20:11 36.559539 -121.511303 149 18833ft 219kts
11-Jan-21 20:12 36.508804 -121.466896 149 19925ft 226kts
11-Jan-21 20:13 36.456833 -121.421454 149 20900ft 232kts
11-Jan-21 20:14 36.401853 -121.373594 149 21264ft 258kts
11-Jan-21 20:15 36.340552 -121.320158 149 21255ft 278kts
11-Jan-21 20:16 36.276362 -121.264329 149 21255ft 285kts
11-Jan-21 20:17 36.210949 -121.207556 149 21255ft 288kts
11-Jan-21 20:18 36.145247 -121.150727 148 21254ft 290kts
11-Jan-21 20:19 36.078898 -121.093420 147 21250ft 292kts
11-Jan-21 20:20 36.011986 -121.035716 146 21249ft 294kts
11-Jan-21 20:21 35.965306 -120.955056 109 21251ft 293kts
11-Jan-21 20:22 35.935387 -120.861787 108 21250ft 293kts
11-Jan-21 20:23 35.905347 -120.768497 108 21250ft 293kts
11-Jan-21 20:24 35.875234 -120.675313 108 21245ft 292kts
11-Jan-21 20:25 35.845060 -120.582238 108 21246ft 292kts
11-Jan-21 20:26 35.814831 -120.489299 108 21247ft 292kts
11-Jan-21 20:27 35.784618 -120.396636 108 21247ft 292kts
11-Jan-21 20:28 35.754188 -120.303653 109 21244ft 292kts
11-Jan-21 20:29 35.723843 -120.211200 109 21245ft 292kts
11-Jan-21 20:30 35.693402 -120.118759 109 21247ft 292kts
11-Jan-21 20:31 35.662820 -120.026177 109 21245ft 292kts
11-Jan-21 20:32 35.627694 -119.936166 117 21258ft 293kts
11-Jan-21 20:33 35.587858 -119.849132 117 21278ft 293kts
11-Jan-21 20:34 35.547852 -119.761959 117 21299ft 293kts
11-Jan-21 20:35 35.507664 -119.674606 117 21302ft 293kts
11-Jan-21 20:36 35.467535 -119.587626 117 21300ft 294kts
11-Jan-21 20:37 35.427262 -119.500529 117 21294ft 294kts
11-Jan-21 20:38 35.386825 -119.413311 117 21290ft 294kts
11-Jan-21 20:39 35.346377 -119.326283 117 21283ft 294kts
11-Jan-21 20:40 35.305826 -119.239287 117 21283ft 294kts
11-Jan-21 20:41 35.265307 -119.152556 117 21284ft 294kts
11-Jan-21 20:42 35.224729 -119.065915 117 21284ft 294kts
11-Jan-21 20:43 35.184137 -118.979404 118 21285ft 293kts
11-Jan-21 20:44 35.143820 -118.893740 118 21285ft 289kts
11-Jan-21 20:45 35.103981 -118.809321 118 21284ft 285kts
11-Jan-21 20:46 35.064591 -118.726104 118 21290ft 282kts
11-Jan-21 20:47 35.025236 -118.643466 122 21301ft 281kts
11-Jan-21 20:48 34.961088 -118.593836 172 21310ft 282kts
11-Jan-21 20:49 34.881954 -118.588032 179 20955ft 298kts
11-Jan-21 20:50 34.797407 -118.583324 178 19940ft 305kts
11-Jan-21 20:51 34.712972 -118.578581 178 18735ft 303kts
11-Jan-21 20:52 34.634794 -118.549648 151 17544ft 294kts
11-Jan-21 20:53 34.561965 -118.505924 152 16337ft 289kts
11-Jan-21 20:54 34.489949 -118.463797 152 15139ft 285kts
11-Jan-21 20:55 34.419844 -118.422856 152 13941ft 277kts
11-Jan-21 20:56 34.351143 -118.382828 152 12744ft 270kts
11-Jan-21 20:57 34.284344 -118.343955 152 11548ft 262kts
11-Jan-21 20:58 34.220214 -118.306697 152 10413ft 251kts
11-Jan-21 20:59 34.157601 -118.270405 152 9424ft 246kts
11-Jan-21 21:00 34.100545 -118.237388 152 8972ft 214kts
11-Jan-21 21:01 34.046329 -118.206044 152 8978ft 217kts
11-Jan-21 21:02 33.991690 -118.174536 152 8991ft 218kts
11-Jan-21 21:03 33.937226 -118.148462 178 8592ft 203kts
11-Jan-21 21:04 33.884041 -118.159543 192 7096ft 191kts
11-Jan-21 21:05 33.832034 -118.172234 192 5592ft 191kts
11-Jan-21 21:06 33.785088 -118.167890 112 4100ft 172kts
11-Jan-21 21:07 33.774186 -118.115848 100 3008ft 157kts
11-Jan-21 21:08 33.764070 -118.064713 102 2990ft 159kts
11-Jan-21 21:09 33.753146 -118.012698 102 2986ft 162kts
11-Jan-21 21:10 33.742759 -117.960924 102 2724ft 139kts
11-Jan-21 21:11 33.739336 -117.916235 92 2117ft 135kts
11-Jan-21 21:12 33.735405 -117.874153 102 1705ft 119kts
11-Jan-21 21:13 33.716766 -117.849043 175 1488ft 103kts
11-Jan-21 21:14 33.691966 -117.858527 207 479ft 91kts
11-Jan-21 21:15 33.672858 -117.870611 213 60ft 39kts
11-Jan-21 21:16 33.669800 -117.874074 204 60ft 15kts
11-Jan-21 21:17 33.669018 -117.875154 25 60ft 0kts

Navigation Log

Ident Type
Flight plan parsing failed, navigation log unavailable